Time,TemperatureF,DewpointF,PressureIn,WindDirection,WindDirectionDegrees,WindSpeedMPH,WindSpeedGustMPH,Humidity,HourlyPrecipIn,Conditions,Clouds,dailyrainin,SolarRadiationWatts/m^2,SoftwareType,DateUTC
2013-08-19 00:02:00,60.8,60.0,29.69,SW,226,5.6,-999.0,97,0.00,,,0.00,0.98,,2013-08-19 07:02:00,
2013-08-19 00:07:00,60.8,60.0,29.69,SSW,213,0.0,-999.0,97,0.00,,,0.00,0.06,,2013-08-19 07:07:00,
2013-08-19 00:12:00,61.4,60.8,29.70,WSW,254,0.0,-999.0,98,0.00,,,0.00,0.73,,2013-08-19 07:12:00,
2013-08-19 00:17:00,61.4,60.5,29.70,WSW,244,1.6,-999.0,97,0.00,,,0.00,0.00,,2013-08-19 07:17:00,
2013-08-19 00:22:00,61.6,60.8,29.70,North,1,2.5,-999.0,97,0.00,,,0.00,0.00,,2013-08-19 07:22:00,
2013-08-19 00:27:00,61.7,60.7,29.71,WSW,246,0.0,-999.0,97,0.00,,,0.00,0.24,,2013-08-19 07:27:00,
2013-08-19 00:32:00,61.6,60.6,29.71,SW,218,1.6,-999.0,96,0.00,,,0.00,0.00,,2013-08-19 07:32:00,
2013-08-19 00:37:00,61.4,60.3,29.70,SSW,211,5.1,-999.0,96,0.00,,,0.00,0.06,,2013-08-19 07:37:00,
2013-08-19 00:42:00,61.3,60.2,29.70,SSW,195,4.0,-999.0,96,0.00,,,0.00,0.00,,2013-08-19 07:42:00,
2013-08-19 00:47:00,61.1,60.2,29.70,SSW,197,0.0,-999.0,97,0.00,,,0.00,0.24,,2013-08-19 07:47:00,
2013-08-19 00:52:00,61.8,60.9,29.70,SW,234,3.4,-999.0,97,0.00,,,0.00,0.00,,2013-08-19 07:52:00,
2013-08-19 00:57:00,62.2,61.2,29.70,NW,320,1.6,-999.0,97,0.00,,,0.00,0.00,,2013-08-19 07:57:00,
2013-08-19 01:02:00,61.6,60.3,29.71,SW,222,0.0,-999.0,95,0.00,,,0.00,0.00,,2013-08-19 08:02:00,
2013-08-19 01:07:00,61.5,60.3,29.70,SW,233,0.0,-999.0,96,0.00,,,0.00,0.00,,2013-08-19 08:07:00,
2013-08-19 01:12:00,61.4,60.2,29.69,WSW,255,5.2,-999.0,96,0.00,,,0.00,0.00,,2013-08-19 08:12:00,
2013-08-19 01:17:00,61.2,60.1,29.70,SW,228,6.9,-999.0,96,0.00,,,0.00,0.73,,2013-08-19 08:17:00,
2013-08-19 01:22:00,61.2,60.4,29.70,WSW,243,7.1,-999.0,97,0.00,,,0.00,0.00,,2013-08-19 08:22:00,
2013-08-19 01:27:00,61.2,60.4,29.70,SE,143,2.3,-999.0,97,0.00,,,0.00,0.24,,2013-08-19 08:27:00,
2013-08-19 01:32:00,61.3,60.5,29.69,West,265,2.2,-999.0,97,0.00,,,0.00,0.00,,2013-08-19 08:32:00,
2013-08-19 01:37:00,61.3,60.5,29.69,South,177,0.0,-999.0,97,0.00,,,0.00,1.28,,2013-08-19 08:37:00,
2013-08-19 01:42:00,61.2,60.5,29.70,SSW,198,1.3,-999.0,98,0.00,,,0.00,0.55,,2013-08-19 08:42:00,
2013-08-19 01:47:00,61.1,60.5,29.70,WSW,238,4.2,-999.0,98,0.00,,,0.00,0.73,,2013-08-19 08:47:00,
2013-08-19 01:52:00,61.3,60.7,29.70,West,280,5.1,-999.0,98,0.00,,,0.00,0.12,,2013-08-19 08:52:00,
2013-08-19 01:57:00,61.2,60.7,29.69,SSW,196,4.0,-999.0,98,0.00,,,0.00,0.98,,2013-08-19 08:57:00,
2013-08-19 02:02:00,61.1,60.5,29.68,SSW,208,4.7,-999.0,98,0.00,,,0.00,0.00,,2013-08-19 09:02:00,
2013-08-19 02:07:00,61.0,60.5,29.68,West,271,6.3,-999.0,98,0.00,,,0.00,0.31,,2013-08-19 09:07:00,
2013-08-19 02:12:00,61.1,60.6,29.69,South,174,4.9,-999.0,98,0.00,,,0.00,0.00,,2013-08-19 09:12:00,
2013-08-19 02:17:00,61.1,60.6,29.70,WNW,288,4.5,-999.0,98,0.00,,,0.00,0.24,,2013-08-19 09:17:00,
2013-08-19 02:22:00,60.8,60.3,29.69,SW,230,1.6,-999.0,98,0.00,,,0.00,0.06,,2013-08-19 09:22:00,
2013-08-19 02:27:00,60.6,60.2,29.69,SSW,211,8.3,-999.0,99,0.00,,,0.00,0.00,,2013-08-19 09:27:00,
2013-08-19 02:32:00,60.4,60.2,29.69,SSW,194,7.3,-999.0,99,0.00,,,0.00,0.00,,2013-08-19 09:32:00,
2013-08-19 02:37:00,60.2,60.1,29.69,West,259,8.8,-999.0,100,0.00,,,0.00,0.00,,2013-08-19 09:37:00,
2013-08-19 02:42:00,60.0,60.0,29.69,SW,225,10.4,-999.0,100,0.00,,,0.00,0.73,,2013-08-19 09:42:00,
2013-08-19 02:47:00,60.0,60.0,29.68,WNW,290,4.9,-999.0,100,0.00,,,0.00,0.18,,2013-08-19 09:47:00,
2013-08-19 02:52:00,60.0,60.0,29.68,WSW,250,6.3,-999.0,100,0.00,,,0.00,0.73,,2013-08-19 09:52:00,
2013-08-19 02:57:00,59.9,59.9,29.68,SW,233,9.3,-999.0,100,0.00,,,0.00,0.00,,2013-08-19 09:57:00,
2013-08-19 03:02:00,60.0,60.0,29.67,South,180,11.4,-999.0,100,0.00,,,0.00,0.49,,2013-08-19 10:02:00,
2013-08-19 03:07:00,60.0,60.0,29.67,WNW,297,12.1,-999.0,100,0.00,,,0.00,0.00,,2013-08-19 10:07:00,
2013-08-19 03:12:00,60.0,60.0,29.69,SW,228,4.5,-999.0,100,0.00,,,0.00,0.55,,2013-08-19 10:12:00,
2013-08-19 03:17:00,60.2,60.2,29.69,WSW,248,2.3,-999.0,100,0.00,,,0.00,0.98,,2013-08-19 10:17:00,
2013-08-19 03:22:00,60.1,60.1,29.69,WSW,243,7.3,-999.0,100,0.00,,,0.00,0.06,,2013-08-19 10:22:00,
2013-08-19 03:27:00,59.9,59.9,29.68,SW,218,11.1,-999.0,100,0.00,,,0.00,0.24,,2013-08-19 10:27:00,
2013-08-19 03:32:00,59.7,59.7,29.69,WSW,258,8.8,-999.0,100,0.00,,,0.00,0.73,,2013-08-19 10:32:00,
2013-08-19 03:37:00,59.7,59.7,29.68,WSW,246,4.5,-999.0,100,0.00,,,0.00,0.00,,2013-08-19 10:37:00,
2013-08-19 03:42:00,59.7,59.7,29.68,WSW,237,3.2,-999.0,100,0.00,,,0.00,0.73,,2013-08-19 10:42:00,
2013-08-19 03:47:00,59.6,59.6,29.68,SE,127,4.7,-999.0,100,0.00,,,0.00,0.00,,2013-08-19 10:47:00,
2013-08-19 03:52:00,59.4,59.4,29.69,WSW,243,9.2,-999.0,100,0.00,,,0.00,0.00,,2013-08-19 10:52:00,
2013-08-19 03:57:00,59.5,59.5,29.69,South,190,7.8,-999.0,100,0.00,,,0.00,0.00,,2013-08-19 10:57:00,
2013-08-19 04:02:00,59.5,59.5,29.67,South,184,9.2,-999.0,100,0.00,,,0.00,0.00,,2013-08-19 11:02:00,
2013-08-19 04:07:00,59.5,59.5,29.69,WNW,283,6.9,-999.0,100,0.00,,,0.00,0.00,,2013-08-19 11:07:00,
2013-08-19 04:12:00,59.3,59.3,29.69,SW,217,6.8,-999.0,100,0.00,,,0.00,0.00,,2013-08-19 11:12:00,
2013-08-19 04:17:00,59.3,59.3,29.69,West,268,6.6,-999.0,100,0.00,,,0.00,0.98,,2013-08-19 11:17:00,
2013-08-19 04:22:00,59.4,59.4,29.70,West,264,3.2,-999.0,100,0.00,,,0.00,0.00,,2013-08-19 11:22:00,
2013-08-19 04:27:00,59.2,59.2,29.68,SSW,205,10.0,-999.0,100,0.00,,,0.00,0.00,,2013-08-19 11:27:00,
2013-08-19 04:32:00,59.0,59.0,29.68,SW,232,10.5,-999.0,100,0.00,,,0.00,0.49,,2013-08-19 11:32:00,
2013-08-19 04:37:00,59.2,59.2,29.68,SW,215,10.5,-999.0,100,0.00,,,0.00,0.24,,2013-08-19 11:37:00,
2013-08-19 04:42:00,59.2,59.2,29.69,SW,214,11.7,-999.0,100,0.00,,,0.00,1.22,,2013-08-19 11:42:00,
2013-08-19 04:47:00,59.4,59.4,29.70,WSW,255,7.8,-999.0,100,0.00,,,0.00,0.00,,2013-08-19 11:47:00,
2013-08-19 04:52:00,59.5,59.5,29.70,SSW,206,7.8,-999.0,100,0.00,,,0.00,0.92,,2013-08-19 11:52:00,
2013-08-19 04:57:00,59.7,59.7,29.69,South,188,8.5,-999.0,100,0.00,,,0.00,0.00,,2013-08-19 11:57:00,
2013-08-19 05:02:00,59.6,59.6,29.71,West,270,9.3,-999.0,100,0.00,,,0.00,0.49,,2013-08-19 12:02:00,
2013-08-19 05:07:00,59.5,59.5,29.69,WSW,257,8.5,-999.0,100,0.00,,,0.00,0.00,,2013-08-19 12:07:00,
2013-08-19 05:12:00,59.5,59.5,29.70,WNW,283,5.9,-999.0,100,0.00,,,0.00,0.00,,2013-08-19 12:12:00,
2013-08-19 05:17:00,59.4,59.4,29.71,South,173,10.2,-999.0,100,0.00,,,0.00,0.00,,2013-08-19 12:17:00,
2013-08-19 05:22:00,59.4,59.4,29.70,WSW,241,6.6,-999.0,100,0.00,,,0.00,0.00,,2013-08-19 12:22:00,
2013-08-19 05:27:00,59.4,59.4,29.70,WSW,243,5.9,-999.0,100,0.00,,,0.00,0.00,,2013-08-19 12:27:00,
2013-08-19 05:32:00,59.5,59.5,29.71,WSW,240,5.9,-999.0,100,0.00,,,0.00,0.98,,2013-08-19 12:32:00,
2013-08-19 05:37:00,59.5,59.5,29.71,SSW,201,5.6,-999.0,100,0.00,,,0.00,0.00,,2013-08-19 12:37:00,
2013-08-19 05:42:00,59.4,59.4,29.71,SSW,210,11.4,-999.0,100,0.00,,,0.00,1.71,,2013-08-19 12:42:00,
2013-08-19 05:47:00,59.4,59.4,29.71,West,280,7.1,-999.0,100,0.00,,,0.00,0.31,,2013-08-19 12:47:00,
2013-08-19 05:52:00,59.3,59.3,29.71,SW,217,6.6,-999.0,100,0.00,,,0.00,0.98,,2013-08-19 12:52:00,
2013-08-19 05:57:00,59.0,59.0,29.72,SW,229,8.5,-999.0,100,0.00,,,0.00,0.00,,2013-08-19 12:57:00,
2013-08-19 06:02:00,59.0,59.0,29.72,WSW,243,9.2,-999.0,100,0.00,,,0.00,0.73,,2013-08-19 13:02:00,
2013-08-19 06:07:00,59.1,59.1,29.73,NNW,341,3.5,-999.0,100,0.00,,,0.00,0.00,,2013-08-19 13:07:00,
2013-08-19 06:12:00,58.9,58.9,29.73,SW,222,7.3,-999.0,100,0.00,,,0.00,0.37,,2013-08-19 13:12:00,
2013-08-19 06:17:00,59.0,59.0,29.73,WSW,254,9.7,-999.0,100,0.00,,,0.00,0.00,,2013-08-19 13:17:00,
2013-08-19 06:22:00,59.0,59.0,29.72,WNW,285,6.1,-999.0,100,0.00,,,0.00,0.12,,2013-08-19 13:22:00,
2013-08-19 06:27:00,59.3,59.3,29.72,WSW,245,5.8,-999.0,100,0.00,,,0.00,0.73,,2013-08-19 13:27:00,
2013-08-19 06:32:00,59.2,59.2,29.73,West,276,8.8,-999.0,100,0.00,,,0.00,2.93,,2013-08-19 13:32:00,
2013-08-19 06:37:00,59.3,59.3,29.73,SSE,151,6.3,-999.0,100,0.00,,,0.00,2.75,,2013-08-19 13:37:00,
2013-08-19 06:42:00,59.2,59.2,29.73,SW,218,3.5,-999.0,100,0.00,,,0.00,5.43,,2013-08-19 13:42:00,
2013-08-19 06:47:00,59.2,59.2,29.73,WSW,244,7.1,-999.0,100,0.00,,,0.00,6.35,,2013-08-19 13:47:00,
2013-08-19 06:52:00,59.4,59.4,29.74,South,181,9.0,-999.0,100,0.00,,,0.00,8.30,,2013-08-19 13:52:00,
2013-08-19 06:57:00,59.6,59.6,29.73,SSW,197,3.7,-999.0,100,0.00,,,0.00,10.07,,2013-08-19 13:57:00,
2013-08-19 07:02:00,59.6,59.6,29.74,SW,236,8.1,-999.0,100,0.00,,,0.00,12.45,,2013-08-19 14:02:00,
2013-08-19 07:07:00,59.5,59.5,29.74,SW,228,9.0,-999.0,100,0.00,,,0.00,14.35,,2013-08-19 14:07:00,
2013-08-19 07:12:00,59.5,59.5,29.74,WSW,252,8.0,-999.0,100,0.00,,,0.00,15.63,,2013-08-19 14:12:00,
2013-08-19 07:17:00,59.5,59.5,29.74,SW,234,4.7,-999.0,100,0.00,,,0.00,21.06,,2013-08-19 14:17:00,
2013-08-19 07:22:00,59.4,59.4,29.74,SSW,207,7.1,-999.0,100,0.00,,,0.00,32.05,,2013-08-19 14:22:00,
2013-08-19 07:27:00,59.3,59.3,29.74,SSW,209,9.8,-999.0,100,0.00,,,0.00,44.93,,2013-08-19 14:27:00,
2013-08-19 07:32:00,59.6,59.6,29.74,West,262,8.0,-999.0,100,0.00,,,0.00,47.50,,2013-08-19 14:32:00,
2013-08-19 07:37:00,59.6,59.6,29.74,SSW,205,11.1,-999.0,100,0.00,,,0.00,42.86,,2013-08-19 14:37:00,
2013-08-19 07:42:00,59.9,59.9,29.74,West,260,9.5,-999.0,100,0.00,,,0.00,58.55,,2013-08-19 14:42:00,
2013-08-19 07:47:00,60.0,60.0,29.74,SW,233,10.0,-999.0,100,0.00,,,0.00,78.94,,2013-08-19 14:47:00,
2013-08-19 07:52:00,60.0,60.0,29.74,South,188,8.7,-999.0,100,0.00,,,0.00,69.96,,2013-08-19 14:52:00,
2013-08-19 07:57:00,60.5,60.5,29.74,South,178,0.0,-999.0,100,0.00,,,0.00,65.81,,2013-08-19 14:57:00,
2013-08-19 08:02:00,60.2,60.2,29.75,SW,221,6.3,-999.0,100,0.00,,,0.00,65.02,,2013-08-19 15:02:00,
2013-08-19 08:07:00,59.9,59.9,29.74,SW,216,6.8,-999.0,100,0.00,,,0.00,92.31,,2013-08-19 15:07:00,
2013-08-19 08:12:00,60.3,60.3,29.75,West,266,6.1,-999.0,100,0.00,,,0.00,92.31,,2013-08-19 15:12:00,
2013-08-19 08:17:00,60.3,60.3,29.75,SW,216,5.9,-999.0,100,0.00,,,0.00,108.00,,2013-08-19 15:17:00,
2013-08-19 08:27:00,60.8,60.8,29.75,North,8,3.5,-999.0,100,0.00,,,0.00,142.37,,2013-08-19 15:27:00,
2013-08-19 08:32:00,60.8,60.8,29.75,WNW,295,5.2,-999.0,100,0.00,,,0.00,159.52,,2013-08-19 15:32:00,
2013-08-19 08:37:00,60.6,60.6,29.76,SSW,203,7.3,-999.0,100,0.00,,,0.00,160.62,,2013-08-19 15:37:00,
2013-08-19 08:42:00,60.8,60.8,29.76,SW,223,4.0,-999.0,100,0.00,,,0.00,163.61,,2013-08-19 15:42:00,
2013-08-19 08:47:00,60.7,60.7,29.76,SW,226,6.6,-999.0,100,0.00,,,0.00,215.14,,2013-08-19 15:47:00,
2013-08-19 08:52:00,60.9,60.9,29.76,WSW,251,4.7,-999.0,100,0.00,,,0.00,209.77,,2013-08-19 15:52:00,
2013-08-19 08:57:00,60.7,60.7,29.76,WSW,250,5.4,-999.0,100,0.00,,,0.00,242.31,,2013-08-19 15:57:00,
2013-08-19 09:02:00,61.1,61.0,29.76,WSW,243,5.1,-999.0,99,0.00,,,0.00,264.16,,2013-08-19 16:02:00,
2013-08-19 09:07:00,61.5,61.0,29.76,South,186,3.0,-999.0,98,0.00,,,0.00,250.12,,2013-08-19 16:07:00,
2013-08-19 09:12:00,61.4,60.3,29.76,WSW,242,7.4,-999.0,96,0.00,,,0.00,265.02,,2013-08-19 16:12:00,
2013-08-19 09:17:00,61.5,60.3,29.76,South,189,5.4,-999.0,96,0.00,,,0.00,328.94,,2013-08-19 16:17:00,
2013-08-19 09:22:00,61.8,60.0,29.76,West,264,8.1,-999.0,94,0.00,,,0.00,336.57,,2013-08-19 16:22:00,
2013-08-19 09:27:00,61.3,59.1,29.76,WSW,237,9.3,-999.0,92,0.00,,,0.00,388.10,,2013-08-19 16:27:00,
2013-08-19 09:32:00,61.9,59.0,29.76,NW,305,5.2,-999.0,90,0.00,,,0.00,266.42,,2013-08-19 16:32:00,
2013-08-19 09:37:00,63.2,59.2,29.76,SSE,166,7.1,-999.0,87,0.00,,,0.00,454.03,,2013-08-19 16:37:00,
2013-08-19 09:42:00,63.2,59.0,29.76,SW,225,9.2,-999.0,86,0.00,,,0.00,397.31,,2013-08-19 16:42:00,
2013-08-19 09:47:00,64.1,59.7,29.76,SW,235,5.2,-999.0,86,0.00,,,0.00,455.07,,2013-08-19 16:47:00,
2013-08-19 09:52:00,65.1,59.7,29.76,WSW,246,5.8,-999.0,83,0.00,,,0.00,477.41,,2013-08-19 16:52:00,
2013-08-19 09:57:00,64.2,57.4,29.76,SSW,205,10.2,-999.0,79,0.00,,,0.00,503.79,,2013-08-19 16:57:00,
2013-08-19 10:02:00,64.7,57.1,29.76,South,190,9.2,-999.0,76,0.00,,,0.00,509.95,,2013-08-19 17:02:00,
2013-08-19 10:07:00,66.6,59.2,29.76,WSW,253,3.2,-999.0,77,0.00,,,0.00,519.41,,2013-08-19 17:07:00,
2013-08-19 10:12:00,65.7,58.4,29.76,WNW,291,4.5,-999.0,77,0.00,,,0.00,535.04,,2013-08-19 17:12:00,
2013-08-19 10:17:00,63.9,55.7,29.76,SSW,213,12.8,-999.0,75,0.00,,,0.00,542.92,,2013-08-19 17:17:00,
2013-08-19 10:22:00,64.5,56.0,29.76,SW,226,10.7,-999.0,74,0.00,,,0.00,554.82,,2013-08-19 17:22:00,
2013-08-19 10:27:00,65.3,56.8,29.76,WSW,241,7.6,-999.0,74,0.00,,,0.00,564.71,,2013-08-19 17:27:00,
2013-08-19 10:32:00,66.0,57.5,29.76,West,263,5.2,-999.0,74,0.00,,,0.00,570.70,,2013-08-19 17:32:00,
2013-08-19 10:37:00,66.7,56.3,29.76,SSE,165,5.6,-999.0,69,0.00,,,0.00,586.08,,2013-08-19 17:37:00,
2013-08-19 10:42:00,66.6,56.6,29.76,SW,225,4.5,-999.0,70,0.00,,,0.00,597.56,,2013-08-19 17:42:00,
2013-08-19 10:47:00,66.8,55.8,29.76,SSW,199,5.9,-999.0,68,0.00,,,0.00,602.38,,2013-08-19 17:47:00,
2013-08-19 10:52:00,66.4,55.2,29.77,SW,230,7.3,-999.0,67,0.00,,,0.00,617.34,,2013-08-19 17:52:00,
2013-08-19 10:57:00,65.3,55.0,29.76,SW,226,11.4,-999.0,69,0.00,,,0.00,624.42,,2013-08-19 17:57:00,
2013-08-19 11:02:00,66.9,56.1,29.76,WSW,237,2.2,-999.0,68,0.00,,,0.00,631.62,,2013-08-19 18:02:00,
2013-08-19 11:07:00,65.9,54.9,29.76,SW,227,9.3,-999.0,67,0.00,,,0.00,632.91,,2013-08-19 18:07:00,
2013-08-19 11:12:00,67.0,55.3,29.76,WSW,237,2.3,-999.0,66,0.00,,,0.00,650.12,,2013-08-19 18:12:00,
2013-08-19 11:17:00,67.8,55.6,29.76,NW,316,3.4,-999.0,65,0.00,,,0.00,656.65,,2013-08-19 18:17:00,
2013-08-19 11:22:00,67.9,54.5,29.76,West,265,9.0,-999.0,62,0.00,,,0.00,638.65,,2013-08-19 18:22:00,
2013-08-19 11:27:00,67.0,54.9,29.76,WSW,243,6.8,-999.0,65,0.00,,,0.00,662.45,,2013-08-19 18:27:00,
2013-08-19 11:32:00,66.6,54.9,29.76,NNW,341,8.3,-999.0,66,0.00,,,0.00,674.30,,2013-08-19 18:32:00,
2013-08-19 11:37:00,66.2,54.7,29.77,South,187,5.6,-999.0,67,0.00,,,0.00,698.23,,2013-08-19 18:37:00,
2013-08-19 11:42:00,67.0,55.4,29.76,SW,224,8.8,-999.0,66,0.00,,,0.00,693.53,,2013-08-19 18:42:00,
2013-08-19 11:47:00,67.3,54.7,29.75,SW,217,8.5,-999.0,64,0.00,,,0.00,745.73,,2013-08-19 18:47:00,
2013-08-19 11:52:00,66.4,55.0,29.75,SW,220,10.2,-999.0,67,0.00,,,0.00,754.64,,2013-08-19 18:52:00,
2013-08-19 11:57:00,67.1,55.3,29.76,West,276,10.5,-999.0,66,0.00,,,0.00,714.53,,2013-08-19 18:57:00,
2013-08-19 12:02:00,65.9,54.6,29.76,South,172,10.0,-999.0,67,0.00,,,0.00,722.89,,2013-08-19 19:02:00,
2013-08-19 12:07:00,67.4,55.6,29.76,SSW,192,5.1,-999.0,66,0.00,,,0.00,718.93,,2013-08-19 19:07:00,
2013-08-19 12:12:00,67.5,54.4,29.75,South,175,11.7,-999.0,63,0.00,,,0.00,721.37,,2013-08-19 19:12:00,
2013-08-19 12:17:00,66.9,55.4,29.75,WNW,295,9.5,-999.0,67,0.00,,,0.00,723.99,,2013-08-19 19:17:00,
2013-08-19 12:22:00,66.9,55.2,29.75,SSW,207,10.9,-999.0,66,0.00,,,0.00,729.67,,2013-08-19 19:22:00,
2013-08-19 12:27:00,68.0,55.9,29.75,SW,232,5.6,-999.0,65,0.00,,,0.00,732.42,,2013-08-19 19:27:00,
2013-08-19 12:32:00,66.8,55.0,29.76,SW,229,11.1,-999.0,66,0.00,,,0.00,735.78,,2013-08-19 19:32:00,
2013-08-19 12:37:00,67.8,56.2,29.76,SSE,154,8.0,-999.0,66,0.00,,,0.00,733.21,,2013-08-19 19:37:00,
2013-08-19 12:42:00,66.7,55.0,29.76,WSW,243,10.4,-999.0,66,0.00,,,0.00,734.98,,2013-08-19 19:42:00,
2013-08-19 12:47:00,67.2,55.9,29.75,SW,228,10.5,-999.0,67,0.00,,,0.00,729.43,,2013-08-19 19:47:00,
2013-08-19 12:52:00,66.2,54.8,29.75,SSW,210,16.4,-999.0,67,0.00,,,0.00,745.30,,2013-08-19 19:52:00,
2013-08-19 12:57:00,66.7,55.9,29.75,West,278,16.7,-999.0,68,0.00,,,0.00,739.99,,2013-08-19 19:57:00,
2013-08-19 13:02:00,67.1,55.8,29.75,West,262,12.3,-999.0,67,0.00,,,0.00,744.02,,2013-08-19 20:02:00,
2013-08-19 13:07:00,66.1,55.2,29.75,SW,230,12.3,-999.0,68,0.00,,,0.00,738.46,,2013-08-19 20:07:00,
2013-08-19 13:12:00,66.5,55.2,29.75,South,188,12.3,-999.0,67,0.00,,,0.00,743.59,,2013-08-19 20:12:00,
2013-08-19 13:17:00,67.4,56.1,29.75,NW,304,11.9,-999.0,67,0.00,,,0.00,742.92,,2013-08-19 20:17:00,
2013-08-19 13:22:00,68.1,56.8,29.75,SW,232,6.3,-999.0,67,0.00,,,0.00,738.77,,2013-08-19 20:22:00,
2013-08-19 13:27:00,67.5,55.5,29.75,SW,234,7.8,-999.0,66,0.00,,,0.00,747.25,,2013-08-19 20:27:00,
2013-08-19 13:32:00,65.7,53.1,29.75,SW,221,19.8,-999.0,64,0.00,,,0.00,739.93,,2013-08-19 20:32:00,
2013-08-19 13:37:00,66.1,54.8,29.75,SW,232,15.2,-999.0,67,0.00,,,0.00,740.17,,2013-08-19 20:37:00,
2013-08-19 13:42:00,66.4,54.8,29.75,WSW,242,9.5,-999.0,66,0.00,,,0.00,729.18,,2013-08-19 20:42:00,
2013-08-19 13:47:00,67.4,56.4,29.75,WNW,299,9.8,-999.0,68,0.00,,,0.00,737.97,,2013-08-19 20:47:00,
2013-08-19 13:52:00,66.7,55.0,29.75,SSW,210,9.5,-999.0,66,0.00,,,0.00,671.37,,2013-08-19 20:52:00,
2013-08-19 14:02:00,65.9,55.2,29.75,WSW,240,10.9,-999.0,68,0.00,,,0.00,758.00,,2013-08-19 21:02:00,
2013-08-19 14:07:00,67.2,56.2,29.75,SSW,204,9.8,-999.0,68,0.00,,,0.00,777.05,,2013-08-19 21:07:00,
2013-08-19 14:12:00,66.5,54.9,29.74,WSW,254,12.9,-999.0,66,0.00,,,0.00,760.20,,2013-08-19 21:12:00,
2013-08-19 14:17:00,65.9,55.5,29.75,South,190,11.9,-999.0,69,0.00,,,0.00,758.49,,2013-08-19 21:17:00,
2013-08-19 14:23:00,32.0,32.0,0.00,North,0,0.0,-999.0,0,-3.39,,,-3.39,,,2013-08-19 21:23:00,
2013-08-19 14:28:00,32.0,32.0,0.00,North,0,0.0,-999.0,0,-3.39,,,-3.39,,,2013-08-19 21:28:00,
2013-08-19 14:33:00,32.0,32.0,0.00,North,0,0.0,-999.0,0,-3.39,,,-3.39,,,2013-08-19 21:33:00,
2013-08-19 14:38:00,32.0,32.0,0.00,North,0,0.0,-999.0,0,-3.39,,,-3.39,,,2013-08-19 21:38:00,
2013-08-19 14:43:00,32.0,32.0,0.00,North,0,0.0,-999.0,0,-3.39,,,-3.39,,,2013-08-19 21:43:00,
2013-08-19 14:48:00,32.0,32.0,0.00,North,0,0.0,-999.0,0,-3.39,,,-3.39,,,2013-08-19 21:48:00,
2013-08-19 14:53:00,32.0,32.0,0.00,North,0,0.0,-999.0,0,-3.39,,,-3.39,,,2013-08-19 21:53:00,
2013-08-19 14:58:00,32.0,32.0,0.00,North,0,0.0,-999.0,0,-3.39,,,-3.39,,,2013-08-19 21:58:00,
2013-08-19 15:08:00,32.0,32.0,0.00,North,0,0.0,-999.0,0,-3.39,,,-3.39,,,2013-08-19 22:08:00,
2013-08-19 15:13:00,32.0,32.0,0.00,North,0,0.0,-999.0,0,-3.39,,,-3.39,,,2013-08-19 22:13:00,
2013-08-19 15:18:00,32.0,32.0,0.00,North,0,0.0,-999.0,0,-3.39,,,-3.39,,,2013-08-19 22:18:00,
2013-08-19 15:23:00,32.0,32.0,0.00,North,0,0.0,-999.0,0,0.00,,,-3.39,,,2013-08-19 22:23:00,
2013-08-19 15:28:00,32.0,32.0,0.00,North,0,0.0,-999.0,0,0.00,,,-3.39,,,2013-08-19 22:28:00,
2013-08-19 15:33:00,32.0,32.0,0.00,North,0,0.0,-999.0,0,0.00,,,-3.39,,,2013-08-19 22:33:00,
2013-08-19 15:38:00,32.0,32.0,0.00,North,0,0.0,-999.0,0,0.00,,,-3.39,,,2013-08-19 22:38:00,
2013-08-19 15:43:00,32.0,32.0,0.00,North,0,0.0,-999.0,0,0.00,,,-3.39,,,2013-08-19 22:43:00,
2013-08-19 15:48:00,32.0,32.0,0.00,North,0,0.0,-999.0,0,0.00,,,-3.39,,,2013-08-19 22:48:00,
2013-08-19 15:53:00,32.0,32.0,0.00,North,0,0.0,-999.0,0,0.00,,,-3.39,,,2013-08-19 22:53:00,
2013-08-19 15:58:00,32.0,32.0,0.00,North,0,0.0,-999.0,0,0.00,,,-3.39,,,2013-08-19 22:58:00,
2013-08-19 16:08:00,32.0,32.0,0.00,North,0,0.0,-999.0,0,0.00,,,-3.39,,,2013-08-19 23:08:00,
2013-08-19 16:13:00,32.0,32.0,0.00,North,0,0.0,-999.0,0,0.00,,,-3.39,,,2013-08-19 23:13:00,
2013-08-19 16:18:00,32.0,32.0,0.00,North,0,0.0,-999.0,0,0.00,,,-3.39,,,2013-08-19 23:18:00,
2013-08-19 16:23:00,32.0,32.0,0.00,North,0,0.0,-999.0,0,0.00,,,-3.39,,,2013-08-19 23:23:00,
2013-08-19 16:28:00,32.0,32.0,0.00,North,0,0.0,-999.0,0,0.00,,,-3.39,,,2013-08-19 23:28:00,
2013-08-19 16:33:00,32.0,32.0,0.00,North,0,0.0,-999.0,0,0.00,,,-3.39,,,2013-08-19 23:33:00,
2013-08-19 16:38:00,32.0,32.0,0.00,North,0,0.0,-999.0,0,0.00,,,-3.39,,,2013-08-19 23:38:00,
2013-08-19 16:43:00,32.0,32.0,0.00,North,0,0.0,-999.0,0,0.00,,,-3.39,,,2013-08-19 23:43:00,
2013-08-19 16:48:00,32.0,32.0,0.00,North,0,0.0,-999.0,0,0.00,,,-3.39,,,2013-08-19 23:48:00,
2013-08-19 16:53:00,32.0,32.0,0.00,North,0,0.0,-999.0,0,0.00,,,-3.39,,,2013-08-19 23:53:00,
2013-08-19 16:58:00,32.0,32.0,0.00,North,0,0.0,-999.0,0,0.00,,,-3.39,,,2013-08-19 23:58:00,
2013-08-19 17:08:00,32.0,32.0,0.00,North,0,0.0,-999.0,0,0.00,,,-3.39,,,2013-08-20 00:08:00,
2013-08-19 17:13:00,32.0,32.0,0.00,North,0,0.0,-999.0,0,0.00,,,-3.39,,,2013-08-20 00:13:00,
2013-08-19 17:18:00,32.0,32.0,0.00,North,0,0.0,-999.0,0,0.00,,,-3.39,,,2013-08-20 00:18:00,
2013-08-19 17:23:00,32.0,32.0,0.00,North,0,0.0,-999.0,0,0.00,,,-3.39,,,2013-08-20 00:23:00,
2013-08-19 17:28:00,32.0,32.0,0.00,North,0,0.0,-999.0,0,0.00,,,-3.39,,,2013-08-20 00:28:00,
2013-08-19 17:33:00,32.0,32.0,0.00,North,0,0.0,-999.0,0,0.00,,,-3.39,,,2013-08-20 00:33:00,
2013-08-19 17:38:00,32.0,32.0,0.00,North,0,0.0,-999.0,0,0.00,,,-3.39,,,2013-08-20 00:38:00,
2013-08-19 17:43:00,32.0,32.0,0.00,North,0,0.0,-999.0,0,0.00,,,-3.39,,,2013-08-20 00:43:00,
2013-08-19 17:48:00,32.0,32.0,0.00,North,0,0.0,-999.0,0,0.00,,,-3.39,,,2013-08-20 00:48:00,
2013-08-19 17:53:00,32.0,32.0,0.00,North,0,0.0,-999.0,0,0.00,,,-3.39,,,2013-08-20 00:53:00,
2013-08-19 17:58:00,32.0,32.0,0.00,North,0,0.0,-999.0,0,0.00,,,-3.39,,,2013-08-20 00:58:00,
2013-08-19 18:08:00,32.0,32.0,0.00,North,0,0.0,-999.0,0,0.00,,,-3.39,,,2013-08-20 01:08:00,
2013-08-19 18:13:00,32.0,32.0,0.00,North,0,0.0,-999.0,0,0.00,,,-3.39,,,2013-08-20 01:13:00,
2013-08-19 18:18:00,32.0,32.0,0.00,North,0,0.0,-999.0,0,0.00,,,-3.39,,,2013-08-20 01:18:00,
2013-08-19 18:23:00,32.0,32.0,0.00,North,0,0.0,-999.0,0,0.00,,,-3.39,,,2013-08-20 01:23:00,
2013-08-19 18:28:00,32.0,32.0,0.00,North,0,0.0,-999.0,0,0.00,,,-3.39,,,2013-08-20 01:28:00,
2013-08-19 18:33:00,32.0,32.0,0.00,North,0,0.0,-999.0,0,0.00,,,-3.39,,,2013-08-20 01:33:00,
2013-08-19 18:38:00,32.0,32.0,0.00,North,0,0.0,-999.0,0,0.00,,,-3.39,,,2013-08-20 01:38:00,
2013-08-19 18:43:00,32.0,32.0,0.00,North,0,0.0,-999.0,0,0.00,,,-3.39,,,2013-08-20 01:43:00,
2013-08-19 18:48:00,32.0,32.0,0.00,North,0,0.0,-999.0,0,0.00,,,-3.39,,,2013-08-20 01:48:00,
2013-08-19 18:53:00,32.0,32.0,0.00,North,0,0.0,-999.0,0,0.00,,,-3.39,,,2013-08-20 01:53:00,
2013-08-19 18:58:00,32.0,32.0,0.00,North,0,0.0,-999.0,0,0.00,,,-3.39,,,2013-08-20 01:58:00,
2013-08-19 19:08:00,32.0,32.0,0.00,North,0,0.0,-999.0,0,0.00,,,-3.39,,,2013-08-20 02:08:00,
2013-08-19 19:13:00,32.0,32.0,0.00,North,0,0.0,-999.0,0,0.00,,,-3.39,,,2013-08-20 02:13:00,
2013-08-19 19:18:00,32.0,32.0,0.00,North,0,0.0,-999.0,0,0.00,,,-3.39,,,2013-08-20 02:18:00,
2013-08-19 19:23:00,32.0,32.0,0.00,North,0,0.0,-999.0,0,0.00,,,-3.39,,,2013-08-20 02:23:00,
2013-08-19 19:28:00,32.0,32.0,0.00,North,0,0.0,-999.0,0,0.00,,,-3.39,,,2013-08-20 02:28:00,
2013-08-19 19:33:00,32.0,32.0,0.00,North,0,0.0,-999.0,0,0.00,,,-3.39,,,2013-08-20 02:33:00,
2013-08-19 19:38:00,32.0,32.0,0.00,North,0,0.0,-999.0,0,0.00,,,-3.39,,,2013-08-20 02:38:00,
2013-08-19 19:43:00,32.0,32.0,0.00,North,0,0.0,-999.0,0,0.00,,,-3.39,,,2013-08-20 02:43:00,
2013-08-19 19:48:00,32.0,32.0,0.00,North,0,0.0,-999.0,0,0.00,,,-3.39,,,2013-08-20 02:48:00,
2013-08-19 19:53:00,32.0,32.0,0.00,North,0,0.0,-999.0,0,0.00,,,-3.39,,,2013-08-20 02:53:00,
2013-08-19 19:58:00,32.0,32.0,0.00,North,0,0.0,-999.0,0,0.00,,,-3.39,,,2013-08-20 02:58:00,
2013-08-19 20:08:00,32.0,32.0,0.00,North,0,0.0,-999.0,0,0.00,,,-3.39,,,2013-08-20 03:08:00,
2013-08-19 20:18:00,32.0,32.0,0.00,North,0,0.0,-999.0,0,0.00,,,-3.39,,,2013-08-20 03:18:00,
2013-08-19 20:23:00,32.0,32.0,0.00,North,0,0.0,-999.0,0,0.00,,,-3.39,,,2013-08-20 03:23:00,
2013-08-19 20:28:00,32.0,32.0,0.00,North,0,0.0,-999.0,0,0.00,,,-3.39,,,2013-08-20 03:28:00,
2013-08-19 20:33:00,32.0,32.0,0.00,North,0,0.0,-999.0,0,0.00,,,-3.39,,,2013-08-20 03:33:00,
2013-08-19 20:38:00,32.0,32.0,0.00,North,0,0.0,-999.0,0,0.00,,,-3.39,,,2013-08-20 03:38:00,
2013-08-19 20:43:00,32.0,32.0,0.00,North,0,0.0,-999.0,0,0.00,,,-3.39,,,2013-08-20 03:43:00,
2013-08-19 20:48:00,32.0,32.0,0.00,North,0,0.0,-999.0,0,0.00,,,-3.39,,,2013-08-20 03:48:00,
2013-08-19 20:53:00,32.0,32.0,0.00,North,0,0.0,-999.0,0,0.00,,,-3.39,,,2013-08-20 03:53:00,
2013-08-19 20:58:00,32.0,32.0,0.00,North,0,0.0,-999.0,0,0.00,,,-3.39,,,2013-08-20 03:58:00,
2013-08-19 21:03:00,32.0,32.0,0.00,North,0,0.0,-999.0,0,0.00,,,-3.39,,,2013-08-20 04:03:00,
2013-08-19 21:08:00,32.0,32.0,0.00,North,0,0.0,-999.0,0,0.00,,,-3.39,,,2013-08-20 04:08:00,
2013-08-19 21:13:00,32.0,32.0,0.00,North,0,0.0,-999.0,0,0.00,,,-3.39,,,2013-08-20 04:13:00,
2013-08-19 21:18:00,32.0,32.0,0.00,North,0,0.0,-999.0,0,0.00,,,-3.39,,,2013-08-20 04:18:00,
2013-08-19 21:23:00,32.0,32.0,0.00,North,0,0.0,-999.0,0,0.00,,,-3.39,,,2013-08-20 04:23:00,
2013-08-19 21:28:00,32.0,32.0,0.00,North,0,0.0,-999.0,0,0.00,,,-3.39,,,2013-08-20 04:28:00,
2013-08-19 21:33:00,32.0,32.0,0.00,North,0,0.0,-999.0,0,0.00,,,-3.39,,,2013-08-20 04:33:00,
2013-08-19 21:38:00,32.0,32.0,0.00,North,0,0.0,-999.0,0,0.00,,,-3.39,,,2013-08-20 04:38:00,
2013-08-19 21:43:00,32.0,32.0,0.00,North,0,0.0,-999.0,0,0.00,,,-3.39,,,2013-08-20 04:43:00,
2013-08-19 21:48:00,32.0,32.0,0.00,North,0,0.0,-999.0,0,0.00,,,-3.39,,,2013-08-20 04:48:00,
2013-08-19 21:53:00,32.0,32.0,0.00,North,0,0.0,-999.0,0,0.00,,,-3.39,,,2013-08-20 04:53:00,
2013-08-19 21:58:00,32.0,32.0,0.00,North,0,0.0,-999.0,0,0.00,,,-3.39,,,2013-08-20 04:58:00,
2013-08-19 22:08:00,32.0,32.0,0.00,North,0,0.0,-999.0,0,0.00,,,-3.39,,,2013-08-20 05:08:00,
2013-08-19 22:13:00,32.0,32.0,0.00,North,0,0.0,-999.0,0,0.00,,,-3.39,,,2013-08-20 05:13:00,
2013-08-19 22:18:00,32.0,32.0,0.00,North,0,0.0,-999.0,0,0.00,,,-3.39,,,2013-08-20 05:18:00,
2013-08-19 22:23:00,32.0,32.0,0.00,North,0,0.0,-999.0,0,0.00,,,-3.39,,,2013-08-20 05:23:00,
2013-08-19 22:28:00,32.0,32.0,0.00,North,0,0.0,-999.0,0,0.00,,,-3.39,,,2013-08-20 05:28:00,
2013-08-19 22:33:00,32.0,32.0,0.00,North,0,0.0,-999.0,0,0.00,,,-3.39,,,2013-08-20 05:33:00,
2013-08-19 22:38:00,32.0,32.0,0.00,North,0,0.0,-999.0,0,0.00,,,-3.39,,,2013-08-20 05:38:00,
2013-08-19 22:43:00,32.0,32.0,0.00,North,0,0.0,-999.0,0,0.00,,,-3.39,,,2013-08-20 05:43:00,
2013-08-19 22:48:00,32.0,32.0,0.00,North,0,0.0,-999.0,0,0.00,,,-3.39,,,2013-08-20 05:48:00,
2013-08-19 22:53:00,32.0,32.0,0.00,North,0,0.0,-999.0,0,0.00,,,-3.39,,,2013-08-20 05:53:00,
2013-08-19 22:58:00,32.0,32.0,0.00,North,0,0.0,-999.0,0,0.00,,,-3.39,,,2013-08-20 05:58:00,
2013-08-19 23:08:00,32.0,32.0,0.00,North,0,0.0,-999.0,0,0.00,,,-3.39,,,2013-08-20 06:08:00,
2013-08-19 23:13:00,32.0,32.0,0.00,North,0,0.0,-999.0,0,0.00,,,-3.39,,,2013-08-20 06:13:00,
2013-08-19 23:18:00,32.0,32.0,0.00,North,0,0.0,-999.0,0,0.00,,,-3.39,,,2013-08-20 06:18:00,
2013-08-19 23:23:00,32.0,32.0,0.00,North,0,0.0,-999.0,0,0.00,,,-3.39,,,2013-08-20 06:23:00,
2013-08-19 23:28:00,32.0,32.0,0.00,North,0,0.0,-999.0,0,0.00,,,-3.39,,,2013-08-20 06:28:00,
2013-08-19 23:33:00,32.0,32.0,0.00,North,0,0.0,-999.0,0,0.00,,,-3.39,,,2013-08-20 06:33:00,
2013-08-19 23:38:00,32.0,32.0,0.00,North,0,0.0,-999.0,0,0.00,,,-3.39,,,2013-08-20 06:38:00,
2013-08-19 23:43:00,32.0,32.0,0.00,North,0,0.0,-999.0,0,0.00,,,-3.39,,,2013-08-20 06:43:00,
2013-08-19 23:48:00,32.0,32.0,0.00,North,0,0.0,-999.0,0,0.00,,,-3.39,,,2013-08-20 06:48:00,
2013-08-19 23:53:00,32.0,32.0,0.00,North,0,0.0,-999.0,0,0.00,,,-3.39,,,2013-08-20 06:53:00,
2013-08-19 23:58:00,32.0,32.0,0.00,North,0,0.0,-999.0,0,0.00,,,-3.39,,,2013-08-20 06:58:00,